sensor_id;sensor_type;location;lat;lon;timestamp;P1;durP1;ratioP1;P2;durP2;ratioP2
65835;SDS011;52595;51.608;7.216;2022-12-18T00:02:09;43.78;;;18.42;;
65835;SDS011;52595;51.608;7.216;2022-12-18T00:04:34;45.60;;;18.92;;
65835;SDS011;52595;51.608;7.216;2022-12-18T00:07:00;50.03;;;20.02;;
65835;SDS011;52595;51.608;7.216;2022-12-18T00:09:25;43.60;;;18.75;;
65835;SDS011;52595;51.608;7.216;2022-12-18T00:11:50;48.47;;;19.40;;
65835;SDS011;52595;51.608;7.216;2022-12-18T00:14:16;46.30;;;18.52;;
65835;SDS011;52595;51.608;7.216;2022-12-18T00:16:45;46.13;;;18.58;;
65835;SDS011;52595;51.608;7.216;2022-12-18T00:19:11;45.33;;;19.15;;
65835;SDS011;52595;51.608;7.216;2022-12-18T00:21:37;53.58;;;20.95;;
65835;SDS011;52595;51.608;7.216;2022-12-18T00:24:02;50.03;;;20.40;;
65835;SDS011;52595;51.608;7.216;2022-12-18T00:26:29;46.20;;;19.55;;
65835;SDS011;52595;51.608;7.216;2022-12-18T00:28:58;42.95;;;18.35;;
65835;SDS011;52595;51.608;7.216;2022-12-18T00:31:25;45.22;;;19.23;;
65835;SDS011;52595;51.608;7.216;2022-12-18T00:33:51;49.55;;;19.05;;
65835;SDS011;52595;51.608;7.216;2022-12-18T00:36:17;44.63;;;19.15;;
65835;SDS011;52595;51.608;7.216;2022-12-18T00:38:44;41.53;;;17.70;;
65835;SDS011;52595;51.608;7.216;2022-12-18T00:41:10;42.45;;;17.67;;
65835;SDS011;52595;51.608;7.216;2022-12-18T00:43:37;46.67;;;19.25;;
65835;SDS011;52595;51.608;7.216;2022-12-18T00:46:03;50.63;;;19.42;;
65835;SDS011;52595;51.608;7.216;2022-12-18T00:48:29;49.65;;;19.15;;
65835;SDS011;52595;51.608;7.216;2022-12-18T00:50:54;46.08;;;18.70;;
65835;SDS011;52595;51.608;7.216;2022-12-18T00:53:20;39.15;;;17.30;;
65835;SDS011;52595;51.608;7.216;2022-12-18T00:55:45;39.58;;;16.88;;
65835;SDS011;52595;51.608;7.216;2022-12-18T00:58:15;42.95;;;16.98;;
65835;SDS011;52595;51.608;7.216;2022-12-18T01:00:41;38.08;;;17.95;;
65835;SDS011;52595;51.608;7.216;2022-12-18T01:03:07;41.17;;;17.23;;
65835;SDS011;52595;51.608;7.216;2022-12-18T01:05:33;43.83;;;17.73;;
65835;SDS011;52595;51.608;7.216;2022-12-18T01:07:58;39.53;;;16.70;;
65835;SDS011;52595;51.608;7.216;2022-12-18T01:10:24;33.50;;;16.17;;
65835;SDS011;52595;51.608;7.216;2022-12-18T01:12:50;36.85;;;16.05;;
65835;SDS011;52595;51.608;7.216;2022-12-18T01:15:16;44.80;;;18.50;;
65835;SDS011;52595;51.608;7.216;2022-12-18T01:17:42;38.75;;;17.90;;
65835;SDS011;52595;51.608;7.216;2022-12-18T01:20:08;44.47;;;18.77;;
65835;SDS011;52595;51.608;7.216;2022-12-18T01:22:35;39.97;;;18.92;;
65835;SDS011;52595;51.608;7.216;2022-12-18T01:25:01;48.33;;;18.50;;
65835;SDS011;52595;51.608;7.216;2022-12-18T01:27:27;46.78;;;19.88;;
65835;SDS011;52595;51.608;7.216;2022-12-18T01:29:52;51.75;;;20.65;;
65835;SDS011;52595;51.608;7.216;2022-12-18T01:32:18;44.55;;;18.90;;
65835;SDS011;52595;51.608;7.216;2022-12-18T01:34:44;44.55;;;19.20;;
65835;SDS011;52595;51.608;7.216;2022-12-18T01:37:09;44.88;;;17.52;;
65835;SDS011;52595;51.608;7.216;2022-12-18T01:39:35;50.40;;;20.15;;
65835;SDS011;52595;51.608;7.216;2022-12-18T01:42:08;46.50;;;19.48;;
65835;SDS011;52595;51.608;7.216;2022-12-18T01:47:18;43.67;;;17.85;;
65835;SDS011;52595;51.608;7.216;2022-12-18T01:49:48;45.55;;;18.38;;
65835;SDS011;52595;51.608;7.216;2022-12-18T01:52:13;45.55;;;18.88;;
65835;SDS011;52595;51.608;7.216;2022-12-18T01:54:40;44.88;;;17.95;;
65835;SDS011;52595;51.608;7.216;2022-12-18T01:57:06;47.92;;;18.70;;
65835;SDS011;52595;51.608;7.216;2022-12-18T01:59:31;46.33;;;17.23;;
65835;SDS011;52595;51.608;7.216;2022-12-18T02:01:59;41.38;;;17.42;;
65835;SDS011;52595;51.608;7.216;2022-12-18T02:04:26;44.67;;;18.13;;
65835;SDS011;52595;51.608;7.216;2022-12-18T02:10:08;37.72;;;16.75;;
65835;SDS011;52595;51.608;7.216;2022-12-18T02:12:56;40.50;;;16.20;;
65835;SDS011;52595;51.608;7.216;2022-12-18T02:18:41;41.88;;;18.25;;
65835;SDS011;52595;51.608;7.216;2022-12-18T02:26:22;31.45;;;13.80;;
65835;SDS011;52595;51.608;7.216;2022-12-18T02:28:54;34.88;;;15.45;;
65835;SDS011;52595;51.608;7.216;2022-12-18T02:31:25;36.33;;;16.25;;
65835;SDS011;52595;51.608;7.216;2022-12-18T02:33:53;35.75;;;15.73;;
65835;SDS011;52595;51.608;7.216;2022-12-18T02:36:21;45.95;;;16.45;;
65835;SDS011;52595;51.608;7.216;2022-12-18T02:38:48;39.10;;;16.33;;
65835;SDS011;52595;51.608;7.216;2022-12-18T02:41:15;37.40;;;15.10;;
65835;SDS011;52595;51.608;7.216;2022-12-18T02:43:46;33.25;;;14.68;;
65835;SDS011;52595;51.608;7.216;2022-12-18T02:46:31;31.95;;;14.02;;
65835;SDS011;52595;51.608;7.216;2022-12-18T02:49:02;34.92;;;15.68;;
65835;SDS011;52595;51.608;7.216;2022-12-18T02:54:23;38.30;;;15.45;;
65835;SDS011;52595;51.608;7.216;2022-12-18T02:56:54;35.70;;;15.18;;
65835;SDS011;52595;51.608;7.216;2022-12-18T02:59:25;34.50;;;14.52;;
65835;SDS011;52595;51.608;7.216;2022-12-18T03:04:59;36.92;;;15.80;;
65835;SDS011;52595;51.608;7.216;2022-12-18T03:07:53;30.63;;;13.95;;
65835;SDS011;52595;51.608;7.216;2022-12-18T03:10:33;35.65;;;15.02;;
65835;SDS011;52595;51.608;7.216;2022-12-18T03:13:08;29.02;;;13.77;;
65835;SDS011;52595;51.608;7.216;2022-12-18T03:15:41;31.80;;;14.27;;
65835;SDS011;52595;51.608;7.216;2022-12-18T03:18:11;32.40;;;14.23;;
65835;SDS011;52595;51.608;7.216;2022-12-18T03:20:50;32.17;;;13.50;;
65835;SDS011;52595;51.608;7.216;2022-12-18T03:23:20;28.00;;;13.25;;
65835;SDS011;52595;51.608;7.216;2022-12-18T03:25:47;30.83;;;13.68;;
65835;SDS011;52595;51.608;7.216;2022-12-18T03:28:16;29.95;;;12.95;;
65835;SDS011;52595;51.608;7.216;2022-12-18T03:30:49;37.75;;;16.27;;
65835;SDS011;52595;51.608;7.216;2022-12-18T03:33:24;32.85;;;14.40;;
65835;SDS011;52595;51.608;7.216;2022-12-18T03:35:52;29.80;;;14.00;;
65835;SDS011;52595;51.608;7.216;2022-12-18T03:38:18;34.08;;;15.50;;
65835;SDS011;52595;51.608;7.216;2022-12-18T03:40:59;32.47;;;15.02;;
65835;SDS011;52595;51.608;7.216;2022-12-18T03:43:48;31.90;;;14.23;;
65835;SDS011;52595;51.608;7.216;2022-12-18T03:46:28;31.17;;;13.75;;
65835;SDS011;52595;51.608;7.216;2022-12-18T03:49:11;33.95;;;14.80;;
65835;SDS011;52595;51.608;7.216;2022-12-18T03:51:46;29.83;;;13.77;;
65835;SDS011;52595;51.608;7.216;2022-12-18T03:54:15;33.28;;;14.30;;
65835;SDS011;52595;51.608;7.216;2022-12-18T03:56:44;34.20;;;14.70;;
65835;SDS011;52595;51.608;7.216;2022-12-18T04:01:41;33.97;;;12.77;;
65835;SDS011;52595;51.608;7.216;2022-12-18T04:04:11;34.80;;;14.48;;
65835;SDS011;52595;51.608;7.216;2022-12-18T04:06:38;33.70;;;15.68;;
65835;SDS011;52595;51.608;7.216;2022-12-18T04:09:06;29.02;;;13.25;;
65835;SDS011;52595;51.608;7.216;2022-12-18T04:11:32;34.42;;;15.23;;
65835;SDS011;52595;51.608;7.216;2022-12-18T04:13:58;34.55;;;14.38;;
65835;SDS011;52595;51.608;7.216;2022-12-18T04:16:24;30.17;;;13.75;;
65835;SDS011;52595;51.608;7.216;2022-12-18T04:18:50;30.88;;;14.27;;
65835;SDS011;52595;51.608;7.216;2022-12-18T04:21:16;33.30;;;13.82;;
65835;SDS011;52595;51.608;7.216;2022-12-18T04:23:41;32.15;;;14.70;;
65835;SDS011;52595;51.608;7.216;2022-12-18T04:26:07;29.65;;;13.55;;
65835;SDS011;52595;51.608;7.216;2022-12-18T04:28:32;32.85;;;13.68;;
65835;SDS011;52595;51.608;7.216;2022-12-18T04:30:58;34.33;;;13.43;;
65835;SDS011;52595;51.608;7.216;2022-12-18T04:33:23;31.40;;;14.52;;
65835;SDS011;52595;51.608;7.216;2022-12-18T04:35:49;30.52;;;11.98;;
65835;SDS011;52595;51.608;7.216;2022-12-18T04:38:14;32.08;;;13.48;;
65835;SDS011;52595;51.608;7.216;2022-12-18T04:40:39;29.75;;;12.85;;
65835;SDS011;52595;51.608;7.216;2022-12-18T04:43:05;29.33;;;13.13;;
65835;SDS011;52595;51.608;7.216;2022-12-18T04:45:31;29.10;;;12.98;;
65835;SDS011;52595;51.608;7.216;2022-12-18T04:47:57;34.13;;;13.27;;
65835;SDS011;52595;51.608;7.216;2022-12-18T04:50:23;26.77;;;12.63;;
65835;SDS011;52595;51.608;7.216;2022-12-18T04:52:49;27.75;;;12.70;;
65835;SDS011;52595;51.608;7.216;2022-12-18T04:55:14;26.65;;;12.30;;
65835;SDS011;52595;51.608;7.216;2022-12-18T04:57:40;32.30;;;13.27;;
65835;SDS011;52595;51.608;7.216;2022-12-18T05:00:08;28.23;;;13.43;;
65835;SDS011;52595;51.608;7.216;2022-12-18T05:02:34;28.38;;;12.45;;
65835;SDS011;52595;51.608;7.216;2022-12-18T05:04:59;27.88;;;12.23;;
65835;SDS011;52595;51.608;7.216;2022-12-18T05:07:24;30.27;;;12.82;;
65835;SDS011;52595;51.608;7.216;2022-12-18T05:09:50;29.90;;;13.27;;
65835;SDS011;52595;51.608;7.216;2022-12-18T05:12:15;27.88;;;13.30;;
65835;SDS011;52595;51.608;7.216;2022-12-18T05:14:41;26.08;;;11.73;;
65835;SDS011;52595;51.608;7.216;2022-12-18T05:17:06;25.45;;;11.82;;
65835;SDS011;52595;51.608;7.216;2022-12-18T05:19:32;25.52;;;11.98;;
65835;SDS011;52595;51.608;7.216;2022-12-18T05:21:57;28.83;;;13.10;;
65835;SDS011;52595;51.608;7.216;2022-12-18T05:24:23;25.98;;;12.02;;
65835;SDS011;52595;51.608;7.216;2022-12-18T05:26:48;29.20;;;11.48;;
65835;SDS011;52595;51.608;7.216;2022-12-18T05:29:14;27.35;;;11.55;;
65835;SDS011;52595;51.608;7.216;2022-12-18T05:31:39;23.75;;;10.95;;
65835;SDS011;52595;51.608;7.216;2022-12-18T05:34:05;23.52;;;10.35;;
65835;SDS011;52595;51.608;7.216;2022-12-18T05:36:31;22.98;;;11.18;;
65835;SDS011;52595;51.608;7.216;2022-12-18T05:38:56;22.80;;;10.40;;
65835;SDS011;52595;51.608;7.216;2022-12-18T05:41:22;26.05;;;10.95;;
65835;SDS011;52595;51.608;7.216;2022-12-18T05:43:47;25.35;;;10.90;;
65835;SDS011;52595;51.608;7.216;2022-12-18T05:46:14;22.02;;;10.15;;
65835;SDS011;52595;51.608;7.216;2022-12-18T05:48:41;24.55;;;10.30;;
65835;SDS011;52595;51.608;7.216;2022-12-18T05:51:08;19.92;;;9.40;;
65835;SDS011;52595;51.608;7.216;2022-12-18T05:53:36;21.52;;;9.98;;
65835;SDS011;52595;51.608;7.216;2022-12-18T05:56:03;22.00;;;10.90;;
65835;SDS011;52595;51.608;7.216;2022-12-18T05:58:30;23.30;;;10.23;;
65835;SDS011;52595;51.608;7.216;2022-12-18T06:00:56;22.45;;;10.52;;
65835;SDS011;52595;51.608;7.216;2022-12-18T06:03:22;22.48;;;9.75;;
65835;SDS011;52595;51.608;7.216;2022-12-18T06:05:48;22.08;;;10.18;;
65835;SDS011;52595;51.608;7.216;2022-12-18T06:08:13;23.27;;;10.60;;
65835;SDS011;52595;51.608;7.216;2022-12-18T06:10:39;24.17;;;10.32;;
65835;SDS011;52595;51.608;7.216;2022-12-18T06:13:05;24.83;;;9.95;;
65835;SDS011;52595;51.608;7.216;2022-12-18T06:15:31;33.45;;;13.52;;
65835;SDS011;52595;51.608;7.216;2022-12-18T06:17:57;23.30;;;10.20;;
65835;SDS011;52595;51.608;7.216;2022-12-18T06:20:23;26.45;;;10.65;;
65835;SDS011;52595;51.608;7.216;2022-12-18T06:22:48;26.13;;;11.55;;
65835;SDS011;52595;51.608;7.216;2022-12-18T06:25:14;19.42;;;9.50;;
65835;SDS011;52595;51.608;7.216;2022-12-18T06:27:39;18.80;;;9.80;;
65835;SDS011;52595;51.608;7.216;2022-12-18T06:30:05;24.08;;;10.13;;
65835;SDS011;52595;51.608;7.216;2022-12-18T06:32:31;23.85;;;9.98;;
65835;SDS011;52595;51.608;7.216;2022-12-18T06:34:56;21.38;;;10.57;;
65835;SDS011;52595;51.608;7.216;2022-12-18T06:37:22;24.75;;;11.18;;
65835;SDS011;52595;51.608;7.216;2022-12-18T06:39:50;24.20;;;10.05;;
65835;SDS011;52595;51.608;7.216;2022-12-18T06:42:16;20.85;;;9.82;;
65835;SDS011;52595;51.608;7.216;2022-12-18T06:44:42;22.52;;;9.98;;
65835;SDS011;52595;51.608;7.216;2022-12-18T06:47:07;26.10;;;9.93;;
65835;SDS011;52595;51.608;7.216;2022-12-18T06:49:32;21.55;;;9.82;;
65835;SDS011;52595;51.608;7.216;2022-12-18T06:51:58;22.98;;;9.68;;
65835;SDS011;52595;51.608;7.216;2022-12-18T06:54:23;24.60;;;9.88;;
65835;SDS011;52595;51.608;7.216;2022-12-18T06:56:49;28.13;;;10.18;;
65835;SDS011;52595;51.608;7.216;2022-12-18T06:59:14;23.80;;;10.23;;
65835;SDS011;52595;51.608;7.216;2022-12-18T07:01:39;24.45;;;10.95;;
65835;SDS011;52595;51.608;7.216;2022-12-18T07:04:05;26.08;;;12.15;;
65835;SDS011;52595;51.608;7.216;2022-12-18T07:06:31;24.92;;;12.55;;
65835;SDS011;52595;51.608;7.216;2022-12-18T07:08:57;27.67;;;12.40;;
65835;SDS011;52595;51.608;7.216;2022-12-18T07:11:22;29.42;;;12.32;;
65835;SDS011;52595;51.608;7.216;2022-12-18T07:13:48;26.42;;;11.88;;
65835;SDS011;52595;51.608;7.216;2022-12-18T07:16:15;26.15;;;10.77;;
65835;SDS011;52595;51.608;7.216;2022-12-18T07:18:42;22.42;;;10.40;;
65835;SDS011;52595;51.608;7.216;2022-12-18T07:21:09;23.55;;;10.52;;
65835;SDS011;52595;51.608;7.216;2022-12-18T07:23:36;25.98;;;10.15;;
65835;SDS011;52595;51.608;7.216;2022-12-18T07:26:03;25.98;;;11.13;;
65835;SDS011;52595;51.608;7.216;2022-12-18T07:28:29;22.77;;;10.30;;
65835;SDS011;52595;51.608;7.216;2022-12-18T07:30:55;22.38;;;10.63;;
65835;SDS011;52595;51.608;7.216;2022-12-18T07:33:21;22.95;;;10.32;;
65835;SDS011;52595;51.608;7.216;2022-12-18T07:35:46;20.98;;;9.45;;
65835;SDS011;52595;51.608;7.216;2022-12-18T07:38:11;22.88;;;9.70;;
65835;SDS011;52595;51.608;7.216;2022-12-18T07:40:37;20.30;;;10.25;;
65835;SDS011;52595;51.608;7.216;2022-12-18T07:43:02;19.98;;;9.80;;
65835;SDS011;52595;51.608;7.216;2022-12-18T07:45:28;18.70;;;9.23;;
65835;SDS011;52595;51.608;7.216;2022-12-18T07:47:53;22.75;;;9.80;;
65835;SDS011;52595;51.608;7.216;2022-12-18T07:50:18;21.75;;;10.32;;
65835;SDS011;52595;51.608;7.216;2022-12-18T07:52:44;21.42;;;10.10;;
65835;SDS011;52595;51.608;7.216;2022-12-18T07:55:09;24.58;;;10.27;;
65835;SDS011;52595;51.608;7.216;2022-12-18T07:57:35;20.48;;;9.52;;
65835;SDS011;52595;51.608;7.216;2022-12-18T08:00:00;23.27;;;9.65;;
65835;SDS011;52595;51.608;7.216;2022-12-18T08:02:26;20.88;;;9.23;;
65835;SDS011;52595;51.608;7.216;2022-12-18T08:04:51;21.38;;;9.57;;
65835;SDS011;52595;51.608;7.216;2022-12-18T08:07:17;20.50;;;9.80;;
65835;SDS011;52595;51.608;7.216;2022-12-18T08:09:42;20.33;;;8.68;;
65835;SDS011;52595;51.608;7.216;2022-12-18T08:12:07;21.23;;;8.82;;
65835;SDS011;52595;51.608;7.216;2022-12-18T08:14:33;22.88;;;9.88;;
65835;SDS011;52595;51.608;7.216;2022-12-18T08:16:58;20.83;;;9.13;;
65835;SDS011;52595;51.608;7.216;2022-12-18T08:19:23;19.70;;;9.35;;
65835;SDS011;52595;51.608;7.216;2022-12-18T08:21:49;17.38;;;9.00;;
65835;SDS011;52595;51.608;7.216;2022-12-18T08:24:14;19.80;;;8.60;;
65835;SDS011;52595;51.608;7.216;2022-12-18T08:26:40;18.02;;;8.57;;
65835;SDS011;52595;51.608;7.216;2022-12-18T08:29:05;18.17;;;8.27;;
65835;SDS011;52595;51.608;7.216;2022-12-18T08:31:31;21.10;;;9.15;;
65835;SDS011;52595;51.608;7.216;2022-12-18T08:33:56;20.60;;;9.55;;
65835;SDS011;52595;51.608;7.216;2022-12-18T08:36:22;22.15;;;9.35;;
65835;SDS011;52595;51.608;7.216;2022-12-18T08:38:51;23.02;;;9.18;;
65835;SDS011;52595;51.608;7.216;2022-12-18T08:41:17;16.88;;;8.95;;
65835;SDS011;52595;51.608;7.216;2022-12-18T08:43:44;19.65;;;9.68;;
65835;SDS011;52595;51.608;7.216;2022-12-18T08:46:31;22.20;;;9.85;;
65835;SDS011;52595;51.608;7.216;2022-12-18T08:48:59;21.90;;;9.63;;
65835;SDS011;52595;51.608;7.216;2022-12-18T08:51:24;20.90;;;9.52;;
65835;SDS011;52595;51.608;7.216;2022-12-18T08:53:50;18.98;;;9.07;;
65835;SDS011;52595;51.608;7.216;2022-12-18T08:56:15;19.92;;;9.57;;
65835;SDS011;52595;51.608;7.216;2022-12-18T08:58:42;18.67;;;9.02;;
65835;SDS011;52595;51.608;7.216;2022-12-18T09:01:08;20.35;;;9.43;;
65835;SDS011;52595;51.608;7.216;2022-12-18T09:03:35;19.23;;;9.65;;
65835;SDS011;52595;51.608;7.216;2022-12-18T09:06:01;22.13;;;9.50;;
65835;SDS011;52595;51.608;7.216;2022-12-18T09:08:27;20.17;;;9.43;;
65835;SDS011;52595;51.608;7.216;2022-12-18T09:10:53;17.98;;;8.98;;
65835;SDS011;52595;51.608;7.216;2022-12-18T09:13:19;19.27;;;9.02;;
65835;SDS011;52595;51.608;7.216;2022-12-18T09:15:48;18.60;;;9.20;;
65835;SDS011;52595;51.608;7.216;2022-12-18T09:18:16;18.00;;;8.90;;
65835;SDS011;52595;51.608;7.216;2022-12-18T09:20:43;19.15;;;9.05;;
65835;SDS011;52595;51.608;7.216;2022-12-18T09:23:08;19.75;;;8.52;;
65835;SDS011;52595;51.608;7.216;2022-12-18T09:25:34;19.30;;;9.13;;
65835;SDS011;52595;51.608;7.216;2022-12-18T09:28:04;21.40;;;9.52;;
65835;SDS011;52595;51.608;7.216;2022-12-18T09:30:31;18.38;;;8.52;;
65835;SDS011;52595;51.608;7.216;2022-12-18T09:32:59;17.10;;;8.73;;
65835;SDS011;52595;51.608;7.216;2022-12-18T09:35:25;17.00;;;8.20;;
65835;SDS011;52595;51.608;7.216;2022-12-18T09:37:52;17.58;;;8.07;;
65835;SDS011;52595;51.608;7.216;2022-12-18T09:40:19;19.60;;;8.48;;
65835;SDS011;52595;51.608;7.216;2022-12-18T09:42:49;15.80;;;8.18;;
65835;SDS011;52595;51.608;7.216;2022-12-18T09:45:19;16.80;;;8.50;;
65835;SDS011;52595;51.608;7.216;2022-12-18T09:47:45;17.08;;;8.55;;
65835;SDS011;52595;51.608;7.216;2022-12-18T09:50:35;18.30;;;9.45;;
65835;SDS011;52595;51.608;7.216;2022-12-18T09:53:02;18.10;;;9.38;;
65835;SDS011;52595;51.608;7.216;2022-12-18T09:55:32;21.52;;;9.43;;
65835;SDS011;52595;51.608;7.216;2022-12-18T09:58:45;16.30;;;9.10;;
65835;SDS011;52595;51.608;7.216;2022-12-18T10:00:55;18.15;;;9.35;;
65835;SDS011;52595;51.608;7.216;2022-12-18T10:03:21;21.98;;;9.75;;
65835;SDS011;52595;51.608;7.216;2022-12-18T10:10:49;17.95;;;9.00;;
65835;SDS011;52595;51.608;7.216;2022-12-18T10:13:29;18.42;;;9.68;;
65835;SDS011;52595;51.608;7.216;2022-12-18T10:24:22;18.52;;;9.82;;
65835;SDS011;52595;51.608;7.216;2022-12-18T10:26:58;24.02;;;9.32;;
65835;SDS011;52595;51.608;7.216;2022-12-18T10:29:33;17.05;;;9.25;;
65835;SDS011;52595;51.608;7.216;2022-12-18T10:31:59;19.73;;;10.20;;
65835;SDS011;52595;51.608;7.216;2022-12-18T10:34:24;21.42;;;9.82;;
65835;SDS011;52595;51.608;7.216;2022-12-18T10:36:49;18.58;;;9.18;;
65835;SDS011;52595;51.608;7.216;2022-12-18T10:39:22;18.63;;;9.52;;
65835;SDS011;52595;51.608;7.216;2022-12-18T10:41:49;19.35;;;9.57;;
65835;SDS011;52595;51.608;7.216;2022-12-18T10:44:16;19.65;;;9.55;;
65835;SDS011;52595;51.608;7.216;2022-12-18T10:46:46;20.67;;;10.23;;
65835;SDS011;52595;51.608;7.216;2022-12-18T10:49:22;16.45;;;8.88;;
65835;SDS011;52595;51.608;7.216;2022-12-18T10:51:51;18.58;;;9.43;;
65835;SDS011;52595;51.608;7.216;2022-12-18T10:54:30;17.48;;;8.88;;
65835;SDS011;52595;51.608;7.216;2022-12-18T10:59:52;15.98;;;8.55;;
65835;SDS011;52595;51.608;7.216;2022-12-18T11:02:35;17.33;;;8.95;;
65835;SDS011;52595;51.608;7.216;2022-12-18T11:05:02;17.05;;;8.45;;
65835;SDS011;52595;51.608;7.216;2022-12-18T11:07:48;15.88;;;8.52;;
65835;SDS011;52595;51.608;7.216;2022-12-18T11:10:18;15.65;;;8.52;;
65835;SDS011;52595;51.608;7.216;2022-12-18T11:12:45;17.35;;;8.98;;
65835;SDS011;52595;51.608;7.216;2022-12-18T11:15:19;18.42;;;8.85;;
65835;SDS011;52595;51.608;7.216;2022-12-18T11:17:47;15.93;;;8.45;;
65835;SDS011;52595;51.608;7.216;2022-12-18T11:20:19;18.27;;;8.35;;
65835;SDS011;52595;51.608;7.216;2022-12-18T11:25:37;15.88;;;8.70;;
65835;SDS011;52595;51.608;7.216;2022-12-18T11:28:04;19.05;;;9.95;;
65835;SDS011;52595;51.608;7.216;2022-12-18T11:30:50;19.38;;;9.85;;
65835;SDS011;52595;51.608;7.216;2022-12-18T11:33:42;18.60;;;9.93;;
65835;SDS011;52595;51.608;7.216;2022-12-18T11:36:12;18.57;;;9.83;;
65835;SDS011;52595;51.608;7.216;2022-12-18T11:38:39;19.85;;;10.05;;
65835;SDS011;52595;51.608;7.216;2022-12-18T11:41:14;16.08;;;8.77;;
65835;SDS011;52595;51.608;7.216;2022-12-18T11:46:37;18.80;;;9.05;;
65835;SDS011;52595;51.608;7.216;2022-12-18T11:49:33;15.90;;;8.65;;
65835;SDS011;52595;51.608;7.216;2022-12-18T11:54:52;18.23;;;9.38;;
65835;SDS011;52595;51.608;7.216;2022-12-18T11:57:30;17.10;;;8.52;;
65835;SDS011;52595;51.608;7.216;2022-12-18T12:00:31;15.57;;;8.63;;
65835;SDS011;52595;51.608;7.216;2022-12-18T12:03:08;15.50;;;8.48;;
65835;SDS011;52595;51.608;7.216;2022-12-18T12:05:57;15.65;;;9.15;;
65835;SDS011;52595;51.608;7.216;2022-12-18T12:08:34;16.42;;;7.97;;
65835;SDS011;52595;51.608;7.216;2022-12-18T12:11:15;14.45;;;8.15;;
65835;SDS011;52595;51.608;7.216;2022-12-18T12:17:14;16.98;;;8.55;;
65835;SDS011;52595;51.608;7.216;2022-12-18T12:25:19;15.48;;;7.95;;
65835;SDS011;52595;51.608;7.216;2022-12-18T12:30:21;14.25;;;7.88;;
65835;SDS011;52595;51.608;7.216;2022-12-18T12:38:06;15.35;;;7.63;;
65835;SDS011;52595;51.608;7.216;2022-12-18T12:40:38;17.35;;;8.43;;
65835;SDS011;52595;51.608;7.216;2022-12-18T12:43:34;20.02;;;9.45;;
65835;SDS011;52595;51.608;7.216;2022-12-18T12:46:11;17.10;;;9.10;;
65835;SDS011;52595;51.608;7.216;2022-12-18T12:51:10;15.30;;;8.57;;
65835;SDS011;52595;51.608;7.216;2022-12-18T12:53:37;15.98;;;9.43;;
65835;SDS011;52595;51.608;7.216;2022-12-18T12:56:04;17.58;;;10.07;;
65835;SDS011;52595;51.608;7.216;2022-12-18T12:58:36;21.08;;;10.20;;
65835;SDS011;52595;51.608;7.216;2022-12-18T13:01:09;18.88;;;8.80;;
65835;SDS011;52595;51.608;7.216;2022-12-18T13:06:16;14.57;;;8.73;;
65835;SDS011;52595;51.608;7.216;2022-12-18T13:08:56;16.95;;;8.43;;
65835;SDS011;52595;51.608;7.216;2022-12-18T13:14:22;14.88;;;8.15;;
65835;SDS011;52595;51.608;7.216;2022-12-18T13:17:13;18.05;;;9.23;;
65835;SDS011;52595;51.608;7.216;2022-12-18T13:19:50;16.67;;;8.48;;
65835;SDS011;52595;51.608;7.216;2022-12-18T13:22:23;15.68;;;8.70;;
65835;SDS011;52595;51.608;7.216;2022-12-18T13:36:23;17.30;;;9.10;;
65835;SDS011;52595;51.608;7.216;2022-12-18T13:38:38;16.08;;;9.38;;
65835;SDS011;52595;51.608;7.216;2022-12-18T13:43:43;16.38;;;9.10;;
65835;SDS011;52595;51.608;7.216;2022-12-18T13:46:23;16.38;;;9.65;;
65835;SDS011;52595;51.608;7.216;2022-12-18T13:52:19;25.00;;;11.95;;
65835;SDS011;52595;51.608;7.216;2022-12-18T13:57:30;20.73;;;9.93;;
65835;SDS011;52595;51.608;7.216;2022-12-18T13:59:58;16.67;;;9.40;;
65835;SDS011;52595;51.608;7.216;2022-12-18T14:02:44;17.92;;;9.10;;
65835;SDS011;52595;51.608;7.216;2022-12-18T14:05:21;17.83;;;9.07;;
65835;SDS011;52595;51.608;7.216;2022-12-18T14:07:49;16.95;;;8.93;;
65835;SDS011;52595;51.608;7.216;2022-12-18T14:10:15;18.52;;;10.13;;
65835;SDS011;52595;51.608;7.216;2022-12-18T14:12:44;17.25;;;9.23;;
65835;SDS011;52595;51.608;7.216;2022-12-18T14:17:52;18.70;;;10.35;;
65835;SDS011;52595;51.608;7.216;2022-12-18T14:20:31;18.90;;;10.05;;
65835;SDS011;52595;51.608;7.216;2022-12-18T14:25:24;17.52;;;9.32;;
65835;SDS011;52595;51.608;7.216;2022-12-18T14:27:52;15.30;;;8.82;;
65835;SDS011;52595;51.608;7.216;2022-12-18T14:30:28;15.98;;;8.85;;
65835;SDS011;52595;51.608;7.216;2022-12-18T14:35:38;16.40;;;9.20;;
65835;SDS011;52595;51.608;7.216;2022-12-18T14:40:55;17.73;;;9.43;;
65835;SDS011;52595;51.608;7.216;2022-12-18T14:43:40;19.20;;;9.93;;
65835;SDS011;52595;51.608;7.216;2022-12-18T14:48:59;19.83;;;9.80;;
65835;SDS011;52595;51.608;7.216;2022-12-18T14:51:27;19.63;;;10.05;;
65835;SDS011;52595;51.608;7.216;2022-12-18T14:53:55;20.52;;;10.60;;
65835;SDS011;52595;51.608;7.216;2022-12-18T14:56:24;22.25;;;10.57;;
65835;SDS011;52595;51.608;7.216;2022-12-18T14:58:54;20.00;;;10.43;;
65835;SDS011;52595;51.608;7.216;2022-12-18T15:01:39;19.15;;;10.90;;
65835;SDS011;52595;51.608;7.216;2022-12-18T15:04:24;22.10;;;10.98;;
65835;SDS011;52595;51.608;7.216;2022-12-18T15:07:05;20.10;;;11.30;;
65835;SDS011;52595;51.608;7.216;2022-12-18T15:09:36;21.05;;;11.30;;
65835;SDS011;52595;51.608;7.216;2022-12-18T15:12:03;23.30;;;10.88;;
65835;SDS011;52595;51.608;7.216;2022-12-18T15:17:00;18.83;;;10.65;;
65835;SDS011;52595;51.608;7.216;2022-12-18T15:19:39;20.73;;;9.93;;
65835;SDS011;52595;51.608;7.216;2022-12-18T15:22:39;18.35;;;10.32;;
65835;SDS011;52595;51.608;7.216;2022-12-18T15:24:59;18.33;;;10.43;;
65835;SDS011;52595;51.608;7.216;2022-12-18T15:27:33;17.98;;;9.68;;
65835;SDS011;52595;51.608;7.216;2022-12-18T15:32:35;18.15;;;10.23;;
65835;SDS011;52595;51.608;7.216;2022-12-18T15:37:36;20.48;;;11.07;;
65835;SDS011;52595;51.608;7.216;2022-12-18T15:40:03;20.77;;;11.73;;
65835;SDS011;52595;51.608;7.216;2022-12-18T15:42:29;19.70;;;11.43;;
65835;SDS011;52595;51.608;7.216;2022-12-18T15:45:13;21.25;;;11.75;;
65835;SDS011;52595;51.608;7.216;2022-12-18T15:47:39;28.63;;;13.90;;
65835;SDS011;52595;51.608;7.216;2022-12-18T15:50:06;28.58;;;14.52;;
65835;SDS011;52595;51.608;7.216;2022-12-18T15:52:32;25.10;;;13.98;;
65835;SDS011;52595;51.608;7.216;2022-12-18T15:55:14;25.30;;;13.55;;
65835;SDS011;52595;51.608;7.216;2022-12-18T15:58:00;24.60;;;13.48;;
65835;SDS011;52595;51.608;7.216;2022-12-18T16:00:26;27.30;;;13.73;;
65835;SDS011;52595;51.608;7.216;2022-12-18T16:02:52;24.77;;;12.75;;
65835;SDS011;52595;51.608;7.216;2022-12-18T16:05:17;25.52;;;13.35;;
65835;SDS011;52595;51.608;7.216;2022-12-18T16:07:49;23.27;;;11.48;;
65835;SDS011;52595;51.608;7.216;2022-12-18T16:10:14;20.70;;;10.02;;
65835;SDS011;52595;51.608;7.216;2022-12-18T16:12:40;20.15;;;10.80;;
65835;SDS011;52595;51.608;7.216;2022-12-18T16:15:07;23.00;;;10.55;;
65835;SDS011;52595;51.608;7.216;2022-12-18T16:17:33;21.23;;;10.23;;
65835;SDS011;52595;51.608;7.216;2022-12-18T16:19:58;18.63;;;10.05;;
65835;SDS011;52595;51.608;7.216;2022-12-18T16:22:25;22.25;;;10.50;;
65835;SDS011;52595;51.608;7.216;2022-12-18T16:24:52;21.33;;;10.07;;
65835;SDS011;52595;51.608;7.216;2022-12-18T16:27:18;21.15;;;10.63;;
65835;SDS011;52595;51.608;7.216;2022-12-18T16:29:45;23.38;;;10.13;;
65835;SDS011;52595;51.608;7.216;2022-12-18T16:32:14;18.80;;;10.27;;